createdAt,value
2018-02-03T00:01:39.900Z,22.80
2018-02-03T00:04:07.520Z,17.30
2018-02-03T00:06:35.167Z,17.80
2018-02-03T00:09:02.758Z,18.13
2018-02-03T00:11:30.411Z,19.87
2018-02-03T00:13:58.064Z,24.07
2018-02-03T00:16:25.681Z,24.50
2018-02-03T00:18:53.310Z,19.50
2018-02-03T00:21:20.925Z,21.33
2018-02-03T00:23:48.572Z,22.30
2018-02-03T00:26:16.166Z,20.23
2018-02-03T00:28:43.843Z,24.00
2018-02-03T00:31:12.392Z,25.30
2018-02-03T00:33:40.026Z,22.20
2018-02-03T00:36:07.621Z,22.30
2018-02-03T00:38:35.247Z,22.63
2018-02-03T00:41:02.875Z,22.63
2018-02-03T00:43:30.531Z,21.43
2018-02-03T00:45:58.154Z,19.53
2018-02-03T00:48:25.751Z,20.57
2018-02-03T00:50:53.402Z,21.90
2018-02-03T00:53:21.083Z,17.83
2018-02-03T00:55:48.725Z,19.93
2018-02-03T00:58:16.354Z,25.70
2018-02-03T01:00:44.032Z,18.70
2018-02-03T01:03:11.654Z,19.87
2018-02-03T01:05:39.295Z,19.13
2018-02-03T01:08:06.960Z,19.47
2018-02-03T01:10:34.608Z,18.77
2018-02-03T01:13:02.246Z,20.60
2018-02-03T01:15:29.888Z,18.67
2018-02-03T01:17:57.480Z,19.30
2018-02-03T01:20:25.135Z,21.70
2018-02-03T01:22:52.741Z,18.53
2018-02-03T01:25:20.424Z,19.47
2018-02-03T01:27:48.058Z,18.70
2018-02-03T01:30:15.733Z,18.30
2018-02-03T01:32:43.325Z,20.60
2018-02-03T01:35:11.008Z,24.13
2018-02-03T01:37:38.604Z,24.33
2018-02-03T01:40:06.244Z,22.13
2018-02-03T01:42:33.893Z,20.10
2018-02-03T01:45:01.535Z,19.77
2018-02-03T01:47:40.935Z,22.37
2018-02-03T01:50:08.569Z,20.60
2018-02-03T01:52:36.221Z,23.53
2018-02-03T01:55:03.846Z,20.60
2018-02-03T01:57:32.234Z,24.80
2018-02-03T01:59:59.828Z,24.83
2018-02-03T02:02:27.455Z,28.17
2018-02-03T02:04:55.070Z,23.83
2018-02-03T02:07:22.699Z,28.07
2018-02-03T02:09:50.307Z,24.77
2018-02-03T02:12:17.927Z,26.93
2018-02-03T02:14:45.568Z,24.90
2018-02-03T02:17:13.196Z,22.97
2018-02-03T02:19:40.805Z,28.40
2018-02-03T02:22:08.438Z,27.00
2018-02-03T02:24:36.214Z,25.57
2018-02-03T02:27:03.852Z,27.03
2018-02-03T02:29:31.484Z,28.80
2018-02-03T02:31:59.097Z,30.03
2018-02-03T02:34:26.723Z,29.23
2018-02-03T02:36:54.352Z,24.97
2018-02-03T02:39:21.972Z,24.77
2018-02-03T02:41:49.601Z,26.17
2018-02-03T02:44:17.200Z,23.70
2018-02-03T02:46:44.821Z,23.93
2018-02-03T02:49:12.453Z,23.47
2018-02-03T02:51:40.079Z,24.33
2018-02-03T02:54:07.728Z,23.00
2018-02-03T02:56:35.334Z,25.60
2018-02-03T02:59:02.977Z,28.83
2018-02-03T03:01:30.584Z,25.90
2018-02-03T03:03:58.260Z,32.33
2018-02-03T03:06:25.883Z,25.87
2018-02-03T03:08:53.512Z,24.47
2018-02-03T03:11:21.144Z,30.47
2018-02-03T03:13:48.817Z,25.43
2018-02-03T03:16:16.435Z,29.10
2018-02-03T03:18:44.062Z,24.73
2018-02-03T03:21:11.699Z,27.17
2018-02-03T03:23:39.332Z,26.70
2018-02-03T03:26:06.950Z,28.67
2018-02-03T03:28:34.572Z,26.53
2018-02-03T03:31:02.214Z,26.87
2018-02-03T03:33:29.847Z,23.43
2018-02-03T03:35:57.472Z,24.13
2018-02-03T03:38:25.093Z,27.07
2018-02-03T03:40:52.730Z,29.03
2018-02-03T03:43:20.368Z,22.30
2018-02-03T03:45:48.016Z,25.83
2018-02-03T03:48:15.658Z,24.30
2018-02-03T03:50:43.247Z,30.00
2018-02-03T03:53:10.930Z,26.17
2018-02-03T03:55:38.531Z,27.60
2018-02-03T03:58:06.168Z,27.60
2018-02-03T04:00:33.772Z,28.43
2018-02-03T04:03:01.454Z,28.13
2018-02-03T04:05:29.067Z,30.70
2018-02-03T04:07:56.704Z,28.90
2018-02-03T04:10:24.315Z,29.00
2018-02-03T04:12:51.980Z,27.57
2018-02-03T04:15:19.599Z,28.30
2018-02-03T04:17:47.208Z,24.70
2018-02-03T04:20:14.853Z,30.33
2018-02-03T04:22:42.522Z,26.70
2018-02-03T04:25:10.942Z,27.63
2018-02-03T04:27:38.564Z,26.77
2018-02-03T04:30:06.243Z,34.27
2018-02-03T04:32:33.872Z,34.60
2018-02-03T04:35:01.500Z,33.17
2018-02-03T04:37:29.105Z,31.90
2018-02-03T04:39:57.459Z,33.20
2018-02-03T04:42:25.077Z,34.93
2018-02-03T04:44:52.720Z,25.67
2018-02-03T04:47:20.347Z,30.90
2018-02-03T04:49:47.975Z,24.63
2018-02-03T04:52:15.612Z,28.70
2018-02-03T04:54:43.216Z,22.77
2018-02-03T04:57:10.885Z,27.87
2018-02-03T04:59:38.493Z,26.77
2018-02-03T05:02:06.901Z,27.70
2018-02-03T05:04:34.608Z,34.03
2018-02-03T05:07:02.231Z,26.63
2018-02-03T05:09:29.895Z,28.50
2018-02-03T05:11:57.556Z,21.03
2018-02-03T05:14:25.145Z,25.33
2018-02-03T05:16:52.752Z,27.73
2018-02-03T05:19:20.391Z,23.80
2018-02-03T05:21:48.001Z,23.13
2018-02-03T05:24:15.628Z,18.20
2018-02-03T05:26:43.272Z,28.10
2018-02-03T05:29:10.923Z,20.13
2018-02-03T05:31:38.556Z,17.20
2018-02-03T05:34:06.207Z,22.40
2018-02-03T05:36:33.835Z,17.03
2018-02-03T05:39:01.468Z,23.00
2018-02-03T05:41:29.102Z,20.33
2018-02-03T05:43:56.737Z,17.70
2018-02-03T05:46:25.095Z,18.40
2018-02-03T05:48:52.726Z,17.90
2018-02-03T05:51:20.358Z,21.60
2018-02-03T05:53:47.985Z,13.67
2018-02-03T05:56:15.638Z,18.10
2018-02-03T05:58:43.278Z,17.80
2018-02-03T06:01:10.908Z,20.30
2018-02-03T06:03:38.555Z,20.83
2018-02-03T06:06:06.151Z,19.53
2018-02-03T06:08:33.778Z,16.70
2018-02-03T06:11:01.406Z,12.60
2018-02-03T06:13:29.027Z,13.67
2018-02-03T06:15:57.455Z,17.53
2018-02-03T06:18:25.093Z,20.40
2018-02-03T06:20:52.715Z,13.77
2018-02-03T06:23:20.339Z,20.90
2018-02-03T06:25:47.972Z,17.30
2018-02-03T06:28:15.589Z,18.97
2018-02-03T06:30:43.242Z,21.30
2018-02-03T06:33:10.880Z,22.07
2018-02-03T06:35:38.480Z,21.40
2018-02-03T06:38:06.148Z,27.63
2018-02-03T06:40:33.783Z,20.83
2018-02-03T06:43:01.418Z,17.20
2018-02-03T06:45:29.018Z,19.47
2018-02-03T06:47:56.651Z,17.07
2018-02-03T06:50:24.235Z,23.90
2018-02-03T06:52:51.868Z,16.83
2018-02-03T06:55:19.502Z,15.43
2018-02-03T06:57:47.143Z,20.37
2018-02-03T07:00:14.780Z,15.73
2018-02-03T07:02:42.438Z,13.40
2018-02-03T07:05:10.120Z,17.03
2018-02-03T07:07:37.942Z,14.90
2018-02-03T07:10:05.632Z,13.10
2018-02-03T07:12:33.267Z,17.67
2018-02-03T07:15:00.924Z,13.97
2018-02-03T07:17:28.563Z,18.03
2018-02-03T07:29:07.343Z,17.40
2018-02-03T07:31:48.257Z,16.90
2018-02-03T07:34:15.884Z,19.23
2018-02-03T07:36:43.523Z,15.40
2018-02-03T07:45:18.208Z,16.47
2018-02-03T07:47:45.839Z,16.80
2018-02-03T07:50:13.441Z,13.33
2018-02-03T07:52:41.081Z,12.93
2018-02-03T07:55:08.672Z,16.57
2018-02-03T07:57:36.311Z,11.47
2018-02-03T08:00:03.944Z,11.30
2018-02-03T08:02:31.591Z,12.30
2018-02-03T08:04:59.225Z,10.43
2018-02-03T08:07:26.884Z,14.50
2018-02-03T08:09:54.487Z,10.77
2018-02-03T08:12:23.354Z,11.37
2018-02-03T08:14:50.994Z,12.67
2018-02-03T08:17:18.630Z,13.57
2018-02-03T08:19:46.211Z,13.67
2018-02-03T08:22:13.880Z,14.43
2018-02-03T08:24:41.510Z,15.70
2018-02-03T08:27:09.159Z,13.77
2018-02-03T08:29:36.782Z,15.90
2018-02-03T08:32:04.394Z,16.53
2018-02-03T08:34:32.033Z,11.33
2018-02-03T08:36:59.656Z,14.47
2018-02-03T08:39:27.298Z,15.47
2018-02-03T08:41:54.937Z,29.90
2018-02-03T08:44:22.582Z,13.60
2018-02-03T08:46:50.191Z,16.53
2018-02-03T08:49:17.831Z,15.70
2018-02-03T08:51:45.563Z,11.70
2018-02-03T08:54:13.201Z,18.80
2018-02-03T08:56:40.811Z,14.80
2018-02-03T08:59:08.460Z,15.40
2018-02-03T09:01:36.068Z,16.00
2018-02-03T09:04:03.730Z,13.90
2018-02-03T09:06:31.363Z,17.13
2018-02-03T09:08:59.012Z,15.43
2018-02-03T09:11:26.633Z,20.87
2018-02-03T09:13:54.255Z,27.30
2018-02-03T09:16:21.916Z,27.10
2018-02-03T09:18:49.524Z,35.17
2018-02-03T09:21:17.161Z,23.90
2018-02-03T09:23:44.747Z,31.93
2018-02-03T09:26:12.395Z,26.57
2018-02-03T09:28:40.020Z,19.63
2018-02-03T09:31:07.631Z,22.47
2018-02-03T09:33:35.276Z,19.80
2018-02-03T09:36:02.969Z,16.50
2018-02-03T09:38:30.586Z,11.13
2018-02-03T09:40:58.216Z,11.10
2018-02-03T09:43:25.845Z,9.63
2018-02-03T09:45:53.444Z,9.27
2018-02-03T09:48:21.068Z,8.10
2018-02-03T09:50:48.676Z,7.53
2018-02-03T09:53:16.316Z,9.97
2018-02-03T09:55:43.927Z,7.40
2018-02-03T09:58:11.563Z,8.17
2018-02-03T10:00:39.180Z,8.23
2018-02-03T10:03:06.829Z,8.17
2018-02-03T10:05:34.426Z,7.77
2018-02-03T10:08:02.136Z,7.80
2018-02-03T10:10:29.716Z,6.80
2018-02-03T10:12:57.357Z,9.57
2018-02-03T10:15:24.968Z,6.30
2018-02-03T10:17:52.555Z,12.03
2018-02-03T10:20:20.223Z,8.20
2018-02-03T10:22:47.799Z,9.73
2018-02-03T10:25:15.431Z,10.13
2018-02-03T10:27:43.045Z,9.47
2018-02-03T10:30:10.641Z,10.70
2018-02-03T10:32:38.284Z,8.50
2018-02-03T10:35:05.918Z,11.43
2018-02-03T10:37:33.550Z,11.33
2018-02-03T10:40:01.175Z,7.53
2018-02-03T10:42:28.836Z,9.73
2018-02-03T10:44:56.473Z,8.43
2018-02-03T10:47:24.086Z,9.90
2018-02-03T10:49:51.714Z,9.73
2018-02-03T10:52:19.326Z,8.53
2018-02-03T10:54:46.972Z,8.47
2018-02-03T10:57:14.562Z,8.30
2018-02-03T10:59:42.192Z,8.53
2018-02-03T11:02:09.767Z,9.50
2018-02-03T11:04:37.395Z,9.93
2018-02-03T11:07:05.024Z,9.17
2018-02-03T11:09:32.643Z,8.63
2018-02-03T11:12:00.244Z,11.90
2018-02-03T11:14:27.925Z,7.00
2018-02-03T11:16:55.550Z,9.33
2018-02-03T11:19:23.188Z,9.97
2018-02-03T11:21:50.798Z,8.20
2018-02-03T11:24:18.463Z,10.53
2018-02-03T11:26:46.076Z,13.57
2018-02-03T11:29:13.675Z,8.30
2018-02-03T11:31:41.300Z,10.37
2018-02-03T11:34:08.933Z,7.50
2018-02-03T11:36:36.573Z,7.53
2018-02-03T11:39:04.204Z,10.03
2018-02-03T11:41:31.845Z,10.10
2018-02-03T11:43:59.473Z,8.33
2018-02-03T11:46:27.095Z,9.33
2018-02-03T11:48:55.692Z,9.17
2018-02-03T11:51:23.324Z,8.57
2018-02-03T11:53:50.996Z,12.07
2018-02-03T11:56:18.639Z,10.27
2018-02-03T11:58:46.287Z,12.40
2018-02-03T12:01:13.897Z,11.20
2018-02-03T12:03:41.542Z,12.43
2018-02-03T12:06:09.171Z,9.90
2018-02-03T12:08:36.831Z,12.80
2018-02-03T12:11:04.456Z,9.20
2018-02-03T12:13:32.089Z,12.93
2018-02-03T12:15:59.718Z,12.67
2018-02-03T12:18:27.350Z,8.33
2018-02-03T12:20:54.975Z,12.70
2018-02-03T12:23:22.594Z,10.23
2018-02-03T12:25:50.236Z,11.53
2018-02-03T12:28:18.688Z,11.03
2018-02-03T12:30:46.367Z,12.40
2018-02-03T12:33:14.023Z,15.13
2018-02-03T12:35:41.663Z,9.70
2018-02-03T12:38:09.342Z,10.73
2018-02-03T12:40:36.968Z,11.20
2018-02-03T12:43:05.576Z,9.23
2018-02-03T12:45:33.213Z,8.80
2018-02-03T12:48:00.832Z,12.93
2018-02-03T12:50:28.480Z,11.57
2018-02-03T12:52:56.152Z,13.60
2018-02-03T12:55:23.796Z,11.40
2018-02-03T12:57:51.463Z,10.17
2018-02-03T13:00:19.071Z,9.40
2018-02-03T13:02:46.725Z,9.47
2018-02-03T13:05:14.380Z,9.60
2018-02-03T13:07:42.063Z,11.47
2018-02-03T13:10:09.714Z,11.10
2018-02-03T13:12:37.388Z,12.73
2018-02-03T13:15:05.015Z,9.33
2018-02-03T13:17:32.677Z,7.20
2018-02-03T13:20:00.309Z,9.13
2018-02-03T13:22:27.942Z,8.07
2018-02-03T13:24:55.592Z,6.70
2018-02-03T13:27:23.249Z,8.67
2018-02-03T13:29:50.895Z,6.80
2018-02-03T13:32:18.527Z,6.57
2018-02-03T13:34:46.207Z,7.63
2018-02-03T13:37:13.905Z,6.10
2018-02-03T13:39:41.579Z,8.33
2018-02-03T13:42:09.216Z,8.07
2018-02-03T13:44:36.865Z,6.70
2018-02-03T13:47:04.541Z,7.33
2018-02-03T14:41:24.400Z,8.00
2018-02-03T14:43:57.698Z,8.33
